Terminal Aerodrome Forecast
Issued by NWS

Home | Current Version | Previous Version | Text Only | Print | Product List | Glossary On
Versions: 1 2 3 4 5 6 7 8 9 10 11 12 13 14 15
000
FTUS44 KJAN 241100
TAFHKS
TAF
KHKS 241120Z 2412/2512 12004KT P6SM SKC
     FM241500 18008G16KT P6SM SCT050 BKN250
     FM250200 17010KT P6SM BKN050
     FM250500 19008KT P6SM OVC025
     FM251000 27005KT P6SM BKN040=

USA.gov is the U.S. government's official web portal to all federal, state and local government web resources and services.